DAL453 KATL-KSLC
Flight info
| Callsign | DAL453 |
|---|---|
| Flight time | 3h 54m |
| Altitude | 34000 |
| Route | RMG J66 MEM J41 EUNIK J112 BUM J110 KIRKE J182 GLD J80 FQF J116 EKR J173 ODUCE |
| Aircraft | A21N/M-DGVW/C |
Departure
| Time | 2026-05-06 04:17 |
|---|---|
| Airport | Hartsfield Jackson Atlanta International Airport (KATL) |
Arrival
| Time | 2026-05-06 08:11 |
|---|---|
| Airport | Salt Lake City International Airport (KSLC) |
| Time | Latitude | Longitude | Altitude | Speed | Heading |
|---|---|---|---|---|---|
| 2026-05-06 03:36 | 33.63981 | -84.43196 | 1009 ft | 0 kts | 275° |
| 2026-05-06 04:07 | 33.63981 | -84.43195 | 1019 ft | 2 kts | 275° |
| 2026-05-06 04:07 | 33.63980 | -84.43167 | 1009 ft | 3 kts | 274° |
| 2026-05-06 04:07 | 33.63973 | -84.43140 | 1009 ft | 4 kts | 324° |
| 2026-05-06 04:08 | 33.63950 | -84.43130 | 1009 ft | 3 kts | 358° |
| 2026-05-06 04:08 | 33.63946 | -84.43130 | 1009 ft | 1 kts | 359° |
| 2026-05-06 04:10 | 33.63947 | -84.43130 | 1009 ft | 0 kts | 359° |
| 2026-05-06 04:10 | 33.63972 | -84.43130 | 1009 ft | 10 kts | 359° |
| 2026-05-06 04:10 | 33.64084 | -84.43130 | 1009 ft | 20 kts | 0° |
| 2026-05-06 04:11 | 33.64222 | -84.43130 | 1009 ft | 20 kts | 359° |
| 2026-05-06 04:11 | 33.64359 | -84.43130 | 1009 ft | 20 kts | 0° |
| 2026-05-06 04:11 | 33.64485 | -84.43103 | 1010 ft | 18 kts | 14° |
| 2026-05-06 04:11 | 33.64541 | -84.43023 | 1010 ft | 12 kts | 85° |
| 2026-05-06 04:12 | 33.64542 | -84.42882 | 1009 ft | 20 kts | 91° |
| 2026-05-06 04:12 | 33.64542 | -84.42714 | 1009 ft | 20 kts | 90° |
| 2026-05-06 04:12 | 33.64541 | -84.42543 | 1009 ft | 21 kts | 90° |
| 2026-05-06 04:12 | 33.64541 | -84.42368 | 1009 ft | 21 kts | 90° |
| 2026-05-06 04:13 | 33.64543 | -84.42191 | 1009 ft | 21 kts | 89° |
| 2026-05-06 04:13 | 33.64543 | -84.42013 | 1009 ft | 22 kts | 90° |
| 2026-05-06 04:13 | 33.64542 | -84.41834 | 1009 ft | 21 kts | 90° |
| 2026-05-06 04:13 | 33.64543 | -84.41659 | 1010 ft | 20 kts | 90° |
| 2026-05-06 04:14 | 33.64542 | -84.41485 | 1010 ft | 21 kts | 90° |
| 2026-05-06 04:14 | 33.64543 | -84.41310 | 1010 ft | 21 kts | 89° |
| 2026-05-06 04:14 | 33.64543 | -84.41133 | 1010 ft | 21 kts | 90° |
| 2026-05-06 04:14 | 33.64543 | -84.40951 | 1009 ft | 22 kts | 90° |
| 2026-05-06 04:15 | 33.64542 | -84.40799 | 1009 ft | 11 kts | 85° |
| 2026-05-06 04:15 | 33.64551 | -84.40706 | 1009 ft | 11 kts | 82° |
| 2026-05-06 04:15 | 33.64565 | -84.40619 | 1009 ft | 9 kts | 65° |
| 2026-05-06 04:15 | 33.64609 | -84.40569 | 1008 ft | 9 kts | 9° |
| 2026-05-06 04:16 | 33.64673 | -84.40581 | 1007 ft | 9 kts | 320° |
| 2026-05-06 04:16 | 33.64680 | -84.40629 | 1007 ft | 11 kts | 271° |
| 2026-05-06 04:16 | 33.64678 | -84.40965 | 1010 ft | 72 kts | 269° |
| 2026-05-06 04:16 | 33.64678 | -84.41831 | 1011 ft | 136 kts | 270° |
| 2026-05-06 04:17 | 33.64676 | -84.43195 | 1065 ft | 183 kts | 268° |
| 2026-05-06 04:17 | 33.64698 | -84.44227 | 1372 ft | 188 kts | 270° |
| 2026-05-06 04:17 | 33.64861 | -84.46348 | 2241 ft | 195 kts | 275° |
| 2026-05-06 04:17 | 33.65109 | -84.47394 | 2685 ft | 200 kts | 279° |
| 2026-05-06 04:18 | 33.65627 | -84.49643 | 3214 ft | 225 kts | 278° |
| 2026-05-06 04:18 | 33.65999 | -84.51580 | 3512 ft | 249 kts | 276° |
| 2026-05-06 04:18 | 33.66200 | -84.52956 | 3681 ft | 256 kts | 275° |
| 2026-05-06 04:18 | 33.66639 | -84.55050 | 3952 ft | 260 kts | 283° |
| 2026-05-06 04:19 | 33.67424 | -84.57769 | 4652 ft | 260 kts | 281° |
| 2026-05-06 04:19 | 33.67691 | -84.59176 | 5024 ft | 256 kts | 275° |
| 2026-05-06 04:19 | 33.67943 | -84.61287 | 5564 ft | 254 kts | 273° |
| 2026-05-06 04:19 | 33.68153 | -84.63384 | 6109 ft | 254 kts | 273° |
| 2026-05-06 04:20 | 33.68352 | -84.65494 | 6639 ft | 254 kts | 273° |
| 2026-05-06 04:20 | 33.68543 | -84.67605 | 7165 ft | 255 kts | 274° |
| 2026-05-06 04:20 | 33.68879 | -84.69716 | 7679 ft | 259 kts | 279° |
| 2026-05-06 04:20 | 33.69280 | -84.71831 | 8212 ft | 261 kts | 279° |
| 2026-05-06 04:21 | 33.69684 | -84.73957 | 8759 ft | 262 kts | 280° |
| 2026-05-06 04:21 | 33.70081 | -84.76102 | 9312 ft | 264 kts | 280° |
| 2026-05-06 04:21 | 33.70471 | -84.78263 | 9870 ft | 266 kts | 280° |
| 2026-05-06 04:21 | 33.70853 | -84.80448 | 10400 ft | 272 kts | 280° |
| 2026-05-06 04:22 | 33.71234 | -84.82714 | 10931 ft | 281 kts | 280° |
| 2026-05-06 04:22 | 33.71638 | -84.85050 | 11439 ft | 292 kts | 285° |
| 2026-05-06 04:22 | 33.72487 | -84.87340 | 11745 ft | 309 kts | 294° |
| 2026-05-06 04:23 | 33.74231 | -84.92325 | 12325 ft | 336 kts | 290° |
| 2026-05-06 04:23 | 33.75042 | -84.94998 | 12798 ft | 342 kts | 289° |
| 2026-05-06 04:23 | 33.75820 | -84.97707 | 13388 ft | 345 kts | 288° |
| 2026-05-06 04:23 | 33.76585 | -85.00456 | 14001 ft | 347 kts | 288° |
| 2026-05-06 04:24 | 33.77340 | -85.03215 | 14617 ft | 347 kts | 288° |
| 2026-05-06 04:24 | 33.78075 | -85.05930 | 15320 ft | 345 kts | 288° |
| 2026-05-06 04:24 | 33.78820 | -85.08695 | 16025 ft | 343 kts | 288° |
| 2026-05-06 04:24 | 33.79619 | -85.11392 | 16625 ft | 343 kts | 293° |
| 2026-05-06 04:25 | 33.80804 | -85.13893 | 17158 ft | 347 kts | 304° |
| 2026-05-06 04:25 | 33.82489 | -85.15991 | 17701 ft | 354 kts | 317° |
| 2026-05-06 04:25 | 33.84594 | -85.17508 | 18220 ft | 364 kts | 331° |
| 2026-05-06 04:25 | 33.87113 | -85.18338 | 18676 ft | 378 kts | 346° |
| 2026-05-06 04:26 | 33.89791 | -85.18336 | 19122 ft | 391 kts | 356° |
| 2026-05-06 04:26 | 33.92518 | -85.17904 | 19484 ft | 400 kts | 1° |
| 2026-05-06 04:26 | 33.95269 | -85.17260 | 19867 ft | 405 kts | 4° |
| 2026-05-06 04:26 | 33.98035 | -85.16524 | 20248 ft | 409 kts | 4° |
| 2026-05-06 04:27 | 34.00814 | -85.15768 | 20633 ft | 411 kts | 4° |
| 2026-05-06 04:27 | 34.03619 | -85.15216 | 21011 ft | 406 kts | 357° |
| 2026-05-06 04:27 | 34.06419 | -85.15162 | 21382 ft | 399 kts | 348° |
| 2026-05-06 04:27 | 34.09102 | -85.15664 | 21747 ft | 392 kts | 339° |
| 2026-05-06 04:28 | 34.11689 | -85.16757 | 22104 ft | 387 kts | 329° |
| 2026-05-06 04:28 | 34.14007 | -85.18370 | 22383 ft | 385 kts | 319° |
| 2026-05-06 04:28 | 34.16027 | -85.20470 | 22695 ft | 383 kts | 310° |
| 2026-05-06 04:28 | 34.17689 | -85.22968 | 23056 ft | 381 kts | 301° |
| 2026-05-06 04:29 | 34.18953 | -85.25772 | 23399 ft | 381 kts | 292° |
| 2026-05-06 04:29 | 34.19833 | -85.28794 | 23707 ft | 383 kts | 287° |
| 2026-05-06 04:29 | 34.20549 | -85.31904 | 24007 ft | 384 kts | 284° |
| 2026-05-06 04:29 | 34.21186 | -85.35035 | 24341 ft | 385 kts | 283° |
| 2026-05-06 04:30 | 34.21795 | -85.38187 | 24676 ft | 385 kts | 283° |
| 2026-05-06 04:30 | 34.22400 | -85.41339 | 25009 ft | 386 kts | 283° |
| 2026-05-06 04:30 | 34.23014 | -85.44491 | 25389 ft | 384 kts | 284° |
| 2026-05-06 04:30 | 34.23634 | -85.47621 | 25789 ft | 383 kts | 284° |
| 2026-05-06 04:31 | 34.24262 | -85.50750 | 26055 ft | 384 kts | 284° |
| 2026-05-06 04:31 | 34.24898 | -85.53896 | 26311 ft | 386 kts | 284° |
| 2026-05-06 04:31 | 34.25539 | -85.57052 | 26571 ft | 387 kts | 284° |
| 2026-05-06 04:31 | 34.26183 | -85.60217 | 26828 ft | 389 kts | 284° |
| 2026-05-06 04:32 | 34.26827 | -85.63394 | 27101 ft | 389 kts | 284° |
| 2026-05-06 04:32 | 34.27472 | -85.66572 | 27357 ft | 390 kts | 284° |
| 2026-05-06 04:32 | 34.28117 | -85.69765 | 27641 ft | 390 kts | 284° |
| 2026-05-06 04:32 | 34.28760 | -85.72948 | 28004 ft | 389 kts | 284° |
| 2026-05-06 04:33 | 34.29398 | -85.76117 | 28367 ft | 387 kts | 284° |
| 2026-05-06 04:33 | 34.30032 | -85.79266 | 28746 ft | 385 kts | 284° |
| 2026-05-06 04:33 | 34.30663 | -85.82406 | 29105 ft | 383 kts | 284° |
| 2026-05-06 04:33 | 34.31290 | -85.85532 | 29460 ft | 382 kts | 284° |
| 2026-05-06 04:34 | 34.31912 | -85.88640 | 29808 ft | 380 kts | 284° |
| 2026-05-06 04:34 | 34.32531 | -85.91734 | 30106 ft | 379 kts | 284° |
| 2026-05-06 04:34 | 34.33150 | -85.94835 | 30400 ft | 377 kts | 284° |
| 2026-05-06 04:34 | 34.33763 | -85.97909 | 30729 ft | 374 kts | 284° |
| 2026-05-06 04:35 | 34.34369 | -86.00952 | 31072 ft | 371 kts | 284° |
| 2026-05-06 04:35 | 34.34971 | -86.03976 | 31401 ft | 368 kts | 284° |
| 2026-05-06 04:35 | 34.35567 | -86.06980 | 31719 ft | 366 kts | 284° |
| 2026-05-06 04:35 | 34.36159 | -86.09963 | 32040 ft | 363 kts | 284° |
| 2026-05-06 04:36 | 34.36746 | -86.12927 | 32352 ft | 361 kts | 284° |
| 2026-05-06 04:36 | 34.37329 | -86.15871 | 32656 ft | 359 kts | 284° |
| 2026-05-06 04:36 | 34.37907 | -86.18795 | 32975 ft | 356 kts | 284° |
| 2026-05-06 04:36 | 34.38469 | -86.21652 | 33391 ft | 351 kts | 284° |
| 2026-05-06 04:37 | 34.39038 | -86.24543 | 33766 ft | 347 kts | 284° |
| 2026-05-06 04:37 | 34.39597 | -86.27388 | 33960 ft | 348 kts | 284° |
| 2026-05-06 04:37 | 34.40151 | -86.30209 | 33972 ft | 352 kts | 284° |
| 2026-05-06 04:38 | 34.41296 | -86.36043 | 33966 ft | 360 kts | 284° |
| 2026-05-06 04:38 | 34.42472 | -86.42041 | 33985 ft | 366 kts | 284° |
| 2026-05-06 04:39 | 34.43644 | -86.48042 | 33944 ft | 366 kts | 283° |
| 2026-05-06 04:39 | 34.44812 | -86.54041 | 33929 ft | 366 kts | 283° |
| 2026-05-06 04:40 | 34.45978 | -86.60045 | 33934 ft | 365 kts | 283° |
| 2026-05-06 04:40 | 34.47137 | -86.66030 | 33937 ft | 365 kts | 283° |
| 2026-05-06 04:41 | 34.48293 | -86.72018 | 33936 ft | 365 kts | 283° |
| 2026-05-06 04:41 | 34.49445 | -86.78006 | 33937 ft | 365 kts | 283° |
| 2026-05-06 04:42 | 34.50595 | -86.83995 | 33937 ft | 365 kts | 283° |
| 2026-05-06 04:42 | 34.51742 | -86.89986 | 33929 ft | 365 kts | 283° |
| 2026-05-06 04:43 | 34.52878 | -86.95938 | 33921 ft | 365 kts | 283° |
| 2026-05-06 04:43 | 34.54021 | -87.01942 | 33931 ft | 365 kts | 282° |
| 2026-05-06 04:44 | 34.55159 | -87.07940 | 33929 ft | 365 kts | 282° |
| 2026-05-06 04:44 | 34.56297 | -87.13950 | 33924 ft | 366 kts | 282° |
| 2026-05-06 04:45 | 34.57432 | -87.19963 | 33905 ft | 365 kts | 282° |
| 2026-05-06 04:45 | 34.58564 | -87.25979 | 33902 ft | 365 kts | 282° |
| 2026-05-06 04:46 | 34.59693 | -87.31994 | 33906 ft | 366 kts | 282° |
| 2026-05-06 04:46 | 34.60819 | -87.38015 | 33905 ft | 366 kts | 282° |
| 2026-05-06 04:47 | 34.61935 | -87.44048 | 33909 ft | 366 kts | 282° |
| 2026-05-06 04:47 | 34.62969 | -87.50104 | 33910 ft | 366 kts | 281° |
| 2026-05-06 04:48 | 34.63967 | -87.56169 | 33914 ft | 366 kts | 281° |
| 2026-05-06 04:48 | 34.64964 | -87.62235 | 33914 ft | 366 kts | 281° |
| 2026-05-06 04:49 | 34.65963 | -87.68300 | 33914 ft | 366 kts | 281° |
| 2026-05-06 04:49 | 34.66963 | -87.74373 | 33912 ft | 368 kts | 281° |
| 2026-05-06 04:50 | 34.67966 | -87.80498 | 33906 ft | 370 kts | 281° |
| 2026-05-06 04:50 | 34.68968 | -87.86636 | 33899 ft | 371 kts | 281° |
| 2026-05-06 04:51 | 34.69962 | -87.92741 | 33899 ft | 371 kts | 281° |
| 2026-05-06 04:51 | 34.70960 | -87.98885 | 33892 ft | 371 kts | 281° |
| 2026-05-06 04:52 | 34.71954 | -88.05031 | 33936 ft | 371 kts | 281° |
| 2026-05-06 04:52 | 34.72949 | -88.11182 | 33886 ft | 372 kts | 281° |
| 2026-05-06 04:53 | 34.73950 | -88.17406 | 33880 ft | 377 kts | 281° |
| 2026-05-06 04:53 | 34.74953 | -88.23662 | 33878 ft | 377 kts | 281° |
| 2026-05-06 04:54 | 34.75954 | -88.29927 | 33880 ft | 377 kts | 281° |
| 2026-05-06 04:54 | 34.76950 | -88.36189 | 33874 ft | 377 kts | 281° |
| 2026-05-06 04:55 | 34.77943 | -88.42456 | 33874 ft | 377 kts | 281° |
| 2026-05-06 04:55 | 34.78932 | -88.48713 | 33859 ft | 378 kts | 281° |
| 2026-05-06 04:56 | 34.79924 | -88.55018 | 33875 ft | 380 kts | 281° |
| 2026-05-06 04:56 | 34.80916 | -88.61339 | 33874 ft | 380 kts | 281° |
| 2026-05-06 04:57 | 34.81905 | -88.67665 | 33875 ft | 380 kts | 281° |
| 2026-05-06 04:57 | 34.82884 | -88.73950 | 33865 ft | 380 kts | 281° |
| 2026-05-06 04:58 | 34.83873 | -88.80316 | 33867 ft | 380 kts | 281° |
| 2026-05-06 04:58 | 34.84846 | -88.86605 | 33873 ft | 380 kts | 281° |
| 2026-05-06 04:59 | 34.85815 | -88.92894 | 33867 ft | 377 kts | 281° |
| 2026-05-06 04:59 | 34.86778 | -88.99166 | 33860 ft | 377 kts | 281° |
| 2026-05-06 05:00 | 34.87738 | -89.05437 | 33870 ft | 376 kts | 281° |
| 2026-05-06 05:00 | 34.88693 | -89.11706 | 33857 ft | 376 kts | 280° |
| 2026-05-06 05:01 | 34.89643 | -89.17975 | 33860 ft | 376 kts | 280° |
| 2026-05-06 05:01 | 34.90593 | -89.24246 | 33851 ft | 377 kts | 280° |
| 2026-05-06 05:02 | 34.91540 | -89.30515 | 33850 ft | 375 kts | 280° |
| 2026-05-06 05:02 | 34.92480 | -89.36762 | 33857 ft | 375 kts | 280° |
| 2026-05-06 05:03 | 34.93259 | -89.41964 | 33844 ft | 375 kts | 280° |
| 2026-05-06 05:03 | 34.94350 | -89.49274 | 33839 ft | 375 kts | 280° |
| 2026-05-06 05:04 | 34.95123 | -89.54475 | 33831 ft | 375 kts | 280° |
| 2026-05-06 05:04 | 34.96051 | -89.60735 | 33831 ft | 375 kts | 280° |
| 2026-05-06 05:05 | 34.96975 | -89.66997 | 33820 ft | 375 kts | 280° |
| 2026-05-06 05:05 | 34.97897 | -89.73266 | 33820 ft | 376 kts | 280° |
| 2026-05-06 05:06 | 34.98815 | -89.79532 | 33823 ft | 376 kts | 279° |
| 2026-05-06 05:06 | 34.99736 | -89.85821 | 33829 ft | 378 kts | 279° |
| 2026-05-06 05:07 | 35.00664 | -89.92160 | 33818 ft | 381 kts | 281° |
| 2026-05-06 05:07 | 35.02361 | -89.98285 | 33821 ft | 386 kts | 293° |
| 2026-05-06 05:08 | 35.05468 | -90.03725 | 33813 ft | 397 kts | 303° |
| 2026-05-06 05:08 | 35.09132 | -90.08826 | 33809 ft | 401 kts | 304° |
| 2026-05-06 05:09 | 35.12894 | -90.13875 | 33804 ft | 402 kts | 305° |
| 2026-05-06 05:09 | 35.16638 | -90.18938 | 33818 ft | 402 kts | 304° |
| 2026-05-06 05:10 | 35.20359 | -90.24026 | 33821 ft | 401 kts | 304° |
| 2026-05-06 05:10 | 35.24070 | -90.29128 | 33820 ft | 401 kts | 304° |
| 2026-05-06 05:11 | 35.27782 | -90.34242 | 33824 ft | 403 kts | 304° |
| 2026-05-06 05:11 | 35.31508 | -90.39382 | 33813 ft | 404 kts | 303° |
| 2026-05-06 05:12 | 35.35251 | -90.44549 | 33826 ft | 406 kts | 303° |
| 2026-05-06 05:12 | 35.38995 | -90.49721 | 33834 ft | 405 kts | 303° |
| 2026-05-06 05:13 | 35.42732 | -90.54893 | 33835 ft | 405 kts | 303° |
| 2026-05-06 05:13 | 35.46439 | -90.60034 | 33840 ft | 405 kts | 303° |
| 2026-05-06 05:14 | 35.50170 | -90.65215 | 33902 ft | 405 kts | 302° |
| 2026-05-06 05:14 | 35.53851 | -90.70316 | 33863 ft | 393 kts | 301° |
| 2026-05-06 05:15 | 35.57449 | -90.75325 | 33874 ft | 390 kts | 301° |
| 2026-05-06 05:15 | 35.61027 | -90.80328 | 33890 ft | 388 kts | 301° |
| 2026-05-06 05:16 | 35.64585 | -90.85306 | 33886 ft | 387 kts | 301° |
| 2026-05-06 05:16 | 35.68142 | -90.90290 | 33889 ft | 387 kts | 301° |
| 2026-05-06 05:17 | 35.71692 | -90.95268 | 33895 ft | 387 kts | 301° |
| 2026-05-06 05:17 | 35.75249 | -91.00260 | 33963 ft | 387 kts | 301° |
| 2026-05-06 05:18 | 35.78769 | -91.05195 | 33892 ft | 380 kts | 301° |
| 2026-05-06 05:18 | 35.82243 | -91.10085 | 33909 ft | 379 kts | 301° |
| 2026-05-06 05:19 | 35.85711 | -91.14980 | 33899 ft | 379 kts | 300° |
| 2026-05-06 05:19 | 35.89155 | -91.19843 | 33898 ft | 379 kts | 300° |
| 2026-05-06 05:20 | 35.92617 | -91.24739 | 33906 ft | 379 kts | 300° |
| 2026-05-06 05:20 | 35.96081 | -91.29642 | 33904 ft | 379 kts | 300° |
| 2026-05-06 05:21 | 35.99540 | -91.34545 | 33905 ft | 379 kts | 300° |
| 2026-05-06 05:21 | 36.02998 | -91.39454 | 33914 ft | 379 kts | 300° |
| 2026-05-06 05:22 | 36.06455 | -91.44369 | 33911 ft | 379 kts | 300° |
| 2026-05-06 05:22 | 36.09906 | -91.49283 | 33910 ft | 378 kts | 300° |
| 2026-05-06 05:23 | 36.13355 | -91.54201 | 33924 ft | 379 kts | 300° |
| 2026-05-06 05:23 | 36.18537 | -91.61591 | 33919 ft | 379 kts | 300° |
| 2026-05-06 05:24 | 36.21994 | -91.66526 | 33919 ft | 379 kts | 300° |
| 2026-05-06 05:24 | 36.25454 | -91.71474 | 33935 ft | 381 kts | 300° |
| 2026-05-06 05:25 | 36.28930 | -91.76466 | 33929 ft | 383 kts | 300° |
| 2026-05-06 05:25 | 36.32389 | -91.81437 | 33928 ft | 384 kts | 300° |
| 2026-05-06 05:26 | 36.35871 | -91.86449 | 33936 ft | 383 kts | 300° |
| 2026-05-06 05:26 | 36.39351 | -91.91465 | 33947 ft | 383 kts | 300° |
| 2026-05-06 05:27 | 36.42827 | -91.96485 | 33936 ft | 383 kts | 300° |
| 2026-05-06 05:27 | 36.46299 | -92.01505 | 33939 ft | 383 kts | 300° |
| 2026-05-06 05:28 | 36.49766 | -92.06528 | 33953 ft | 383 kts | 299° |
| 2026-05-06 05:28 | 36.53244 | -92.11578 | 33943 ft | 385 kts | 299° |
| 2026-05-06 05:29 | 36.56731 | -92.16642 | 33944 ft | 385 kts | 299° |
| 2026-05-06 05:29 | 36.60211 | -92.21703 | 33944 ft | 385 kts | 299° |
| 2026-05-06 05:30 | 36.63689 | -92.26773 | 33945 ft | 385 kts | 299° |
| 2026-05-06 05:30 | 36.67165 | -92.31846 | 33956 ft | 384 kts | 298° |
| 2026-05-06 05:31 | 36.70628 | -92.36905 | 33954 ft | 384 kts | 298° |
| 2026-05-06 05:31 | 36.74091 | -92.41973 | 33974 ft | 384 kts | 298° |
| 2026-05-06 05:32 | 36.77557 | -92.47062 | 33972 ft | 385 kts | 298° |
| 2026-05-06 05:32 | 36.81030 | -92.52161 | 33957 ft | 386 kts | 298° |
| 2026-05-06 05:33 | 36.84502 | -92.57266 | 33953 ft | 386 kts | 298° |
| 2026-05-06 05:33 | 36.87969 | -92.62373 | 33956 ft | 386 kts | 298° |
| 2026-05-06 05:34 | 36.91414 | -92.67454 | 33988 ft | 385 kts | 298° |
| 2026-05-06 05:34 | 36.94872 | -92.72563 | 33971 ft | 384 kts | 298° |
| 2026-05-06 05:35 | 36.98311 | -92.77648 | 33976 ft | 381 kts | 298° |
| 2026-05-06 05:35 | 37.01728 | -92.82709 | 33976 ft | 380 kts | 298° |
| 2026-05-06 05:36 | 37.05135 | -92.87768 | 33977 ft | 380 kts | 298° |
| 2026-05-06 05:36 | 37.08537 | -92.92828 | 33982 ft | 380 kts | 298° |
| 2026-05-06 05:37 | 37.11939 | -92.97895 | 33986 ft | 380 kts | 298° |
| 2026-05-06 05:37 | 37.15334 | -93.02959 | 33989 ft | 380 kts | 298° |
| 2026-05-06 05:38 | 37.18732 | -93.08032 | 33994 ft | 379 kts | 297° |
| 2026-05-06 05:38 | 37.22115 | -93.13089 | 33996 ft | 377 kts | 298° |
| 2026-05-06 05:39 | 37.25476 | -93.18121 | 33997 ft | 376 kts | 298° |
| 2026-05-06 05:39 | 37.28827 | -93.23151 | 33995 ft | 375 kts | 298° |
| 2026-05-06 05:40 | 37.32173 | -93.28181 | 33995 ft | 375 kts | 298° |
| 2026-05-06 05:40 | 37.35784 | -93.32967 | 33996 ft | 391 kts | 307° |
| 2026-05-06 05:41 | 37.38029 | -93.34997 | 33997 ft | 403 kts | 313° |
| 2026-05-06 05:41 | 37.40426 | -93.36852 | 34003 ft | 407 kts | 315° |
| 2026-05-06 05:41 | 37.45383 | -93.40388 | 34004 ft | 411 kts | 316° |
| 2026-05-06 05:42 | 37.50398 | -93.43866 | 34005 ft | 411 kts | 316° |
| 2026-05-06 05:42 | 37.55398 | -93.47368 | 34005 ft | 411 kts | 316° |
| 2026-05-06 05:43 | 37.60382 | -93.50897 | 34010 ft | 411 kts | 315° |
| 2026-05-06 05:43 | 37.65358 | -93.54438 | 34016 ft | 411 kts | 316° |
| 2026-05-06 05:44 | 37.70327 | -93.57980 | 34019 ft | 410 kts | 315° |
| 2026-05-06 05:44 | 37.75297 | -93.61527 | 34020 ft | 410 kts | 315° |
| 2026-05-06 05:45 | 37.80268 | -93.65080 | 34021 ft | 410 kts | 315° |
| 2026-05-06 05:45 | 37.85233 | -93.68634 | 34024 ft | 410 kts | 315° |
| 2026-05-06 05:46 | 37.90197 | -93.72193 | 34052 ft | 410 kts | 315° |
| 2026-05-06 05:46 | 37.95159 | -93.75754 | 34028 ft | 410 kts | 315° |
| 2026-05-06 05:47 | 38.00116 | -93.79319 | 34024 ft | 410 kts | 315° |
| 2026-05-06 05:47 | 38.05037 | -93.82863 | 34029 ft | 410 kts | 315° |
| 2026-05-06 05:48 | 38.09997 | -93.86442 | 34028 ft | 410 kts | 315° |
| 2026-05-06 05:48 | 38.14818 | -93.90181 | 34038 ft | 396 kts | 308° |
| 2026-05-06 05:49 | 38.16868 | -93.92417 | 34029 ft | 381 kts | 301° |
| 2026-05-06 05:49 | 38.18583 | -93.94906 | 34031 ft | 368 kts | 294° |
| 2026-05-06 05:49 | 38.19946 | -93.97600 | 34034 ft | 357 kts | 287° |
| 2026-05-06 05:49 | 38.20952 | -94.00436 | 34035 ft | 348 kts | 281° |
| 2026-05-06 05:50 | 38.22062 | -94.06320 | 34035 ft | 340 kts | 274° |
| 2026-05-06 05:50 | 38.22804 | -94.12261 | 34033 ft | 340 kts | 273° |
| 2026-05-06 05:51 | 38.23499 | -94.18203 | 34034 ft | 340 kts | 273° |
| 2026-05-06 05:51 | 38.24215 | -94.24144 | 34035 ft | 340 kts | 273° |
| 2026-05-06 05:52 | 38.24944 | -94.30090 | 34034 ft | 340 kts | 273° |
| 2026-05-06 05:52 | 38.25678 | -94.36039 | 34040 ft | 340 kts | 273° |
| 2026-05-06 05:53 | 38.26408 | -94.41985 | 34034 ft | 340 kts | 273° |
| 2026-05-06 05:53 | 38.27061 | -94.47931 | 34034 ft | 337 kts | 269° |
| 2026-05-06 05:54 | 38.27110 | -94.52869 | 34033 ft | 335 kts | 266° |
| 2026-05-06 05:54 | 38.26968 | -94.58792 | 34037 ft | 335 kts | 264° |
| 2026-05-06 05:55 | 38.26737 | -94.65671 | 34033 ft | 335 kts | 264° |
| 2026-05-06 05:55 | 38.26570 | -94.70627 | 34035 ft | 334 kts | 264° |
| 2026-05-06 05:56 | 38.26377 | -94.76533 | 34034 ft | 334 kts | 264° |
| 2026-05-06 05:56 | 38.26185 | -94.82449 | 34032 ft | 335 kts | 264° |
| 2026-05-06 05:57 | 38.25991 | -94.88362 | 34035 ft | 335 kts | 264° |
| 2026-05-06 05:57 | 38.25793 | -94.94271 | 34035 ft | 335 kts | 264° |
| 2026-05-06 05:58 | 38.25592 | -95.00180 | 34035 ft | 334 kts | 264° |
| 2026-05-06 05:58 | 38.25389 | -95.06079 | 34036 ft | 333 kts | 264° |
| 2026-05-06 05:59 | 38.25184 | -95.11930 | 34036 ft | 333 kts | 264° |
| 2026-05-06 05:59 | 38.24975 | -95.17821 | 34038 ft | 334 kts | 264° |
| 2026-05-06 06:00 | 38.24762 | -95.23712 | 34039 ft | 333 kts | 264° |
| 2026-05-06 06:00 | 38.24547 | -95.29598 | 34042 ft | 333 kts | 264° |
| 2026-05-06 06:01 | 38.24330 | -95.35485 | 34048 ft | 333 kts | 264° |
| 2026-05-06 06:01 | 38.24109 | -95.41365 | 34041 ft | 333 kts | 263° |
| 2026-05-06 06:02 | 38.23885 | -95.47241 | 34043 ft | 333 kts | 263° |
| 2026-05-06 06:02 | 38.23658 | -95.53115 | 34048 ft | 333 kts | 263° |
| 2026-05-06 06:03 | 38.23429 | -95.58987 | 34048 ft | 332 kts | 263° |
| 2026-05-06 06:03 | 38.23198 | -95.64860 | 34055 ft | 332 kts | 263° |
| 2026-05-06 06:04 | 38.22963 | -95.70736 | 34055 ft | 332 kts | 263° |
| 2026-05-06 06:04 | 38.22725 | -95.76599 | 34046 ft | 332 kts | 263° |
| 2026-05-06 06:05 | 38.22484 | -95.82454 | 34053 ft | 332 kts | 263° |
| 2026-05-06 06:05 | 38.22240 | -95.88325 | 34060 ft | 332 kts | 263° |
| 2026-05-06 06:06 | 38.21994 | -95.94183 | 34059 ft | 332 kts | 263° |
| 2026-05-06 06:06 | 38.21746 | -96.00040 | 34060 ft | 332 kts | 263° |
| 2026-05-06 06:07 | 38.21494 | -96.05899 | 34068 ft | 332 kts | 263° |
| 2026-05-06 06:07 | 38.21239 | -96.11756 | 34069 ft | 332 kts | 263° |
| 2026-05-06 06:08 | 38.20983 | -96.17570 | 34058 ft | 331 kts | 263° |
| 2026-05-06 06:08 | 38.20721 | -96.23457 | 34070 ft | 331 kts | 263° |
| 2026-05-06 06:09 | 38.20459 | -96.29264 | 34062 ft | 331 kts | 263° |
| 2026-05-06 06:09 | 38.20193 | -96.35112 | 34059 ft | 331 kts | 263° |
| 2026-05-06 06:10 | 38.19924 | -96.40956 | 34061 ft | 331 kts | 263° |
| 2026-05-06 06:10 | 38.19652 | -96.46800 | 34092 ft | 331 kts | 262° |
| 2026-05-06 06:11 | 38.19378 | -96.52645 | 34063 ft | 331 kts | 263° |
| 2026-05-06 06:11 | 38.19100 | -96.58485 | 34061 ft | 331 kts | 262° |
| 2026-05-06 06:12 | 38.18819 | -96.64326 | 34057 ft | 331 kts | 262° |
| 2026-05-06 06:12 | 38.18536 | -96.70164 | 34060 ft | 331 kts | 262° |
| 2026-05-06 06:13 | 38.18250 | -96.76007 | 34059 ft | 331 kts | 262° |
| 2026-05-06 06:13 | 38.17961 | -96.81842 | 34058 ft | 331 kts | 262° |
| 2026-05-06 06:14 | 38.17668 | -96.87684 | 34064 ft | 331 kts | 262° |
| 2026-05-06 06:14 | 38.17372 | -96.93522 | 34066 ft | 331 kts | 262° |
| 2026-05-06 06:15 | 38.17075 | -96.99356 | 34072 ft | 331 kts | 262° |
| 2026-05-06 06:15 | 38.16774 | -97.05192 | 34076 ft | 331 kts | 262° |
| 2026-05-06 06:16 | 38.16470 | -97.11026 | 34076 ft | 331 kts | 262° |
| 2026-05-06 06:16 | 38.16166 | -97.16823 | 34079 ft | 331 kts | 262° |
| 2026-05-06 06:17 | 38.15856 | -97.22654 | 34081 ft | 331 kts | 262° |
| 2026-05-06 06:17 | 38.15543 | -97.28484 | 34083 ft | 331 kts | 262° |
| 2026-05-06 06:18 | 38.15228 | -97.34319 | 34081 ft | 331 kts | 262° |
| 2026-05-06 06:18 | 38.14910 | -97.40150 | 34079 ft | 331 kts | 262° |
| 2026-05-06 06:19 | 38.14590 | -97.45974 | 34076 ft | 331 kts | 262° |
| 2026-05-06 06:19 | 38.14266 | -97.51806 | 34069 ft | 331 kts | 262° |
| 2026-05-06 06:20 | 38.13939 | -97.57632 | 34071 ft | 331 kts | 262° |
| 2026-05-06 06:20 | 38.13609 | -97.63456 | 34070 ft | 331 kts | 262° |
| 2026-05-06 06:21 | 38.13277 | -97.69295 | 34072 ft | 331 kts | 262° |
| 2026-05-06 06:21 | 38.12942 | -97.75133 | 34072 ft | 331 kts | 262° |
| 2026-05-06 06:22 | 38.12604 | -97.80967 | 34072 ft | 331 kts | 262° |
| 2026-05-06 06:22 | 38.12263 | -97.86800 | 34072 ft | 331 kts | 262° |
| 2026-05-06 06:23 | 38.11918 | -97.92640 | 34074 ft | 331 kts | 262° |
| 2026-05-06 06:23 | 38.11574 | -97.98432 | 34074 ft | 331 kts | 262° |
| 2026-05-06 06:24 | 38.11223 | -98.04273 | 34069 ft | 332 kts | 262° |
| 2026-05-06 06:24 | 38.10869 | -98.10123 | 34067 ft | 332 kts | 262° |
| 2026-05-06 06:25 | 38.10513 | -98.15968 | 34065 ft | 332 kts | 262° |
| 2026-05-06 06:26 | 38.09972 | -98.24734 | 34076 ft | 332 kts | 262° |
| 2026-05-06 06:26 | 38.09609 | -98.30577 | 34075 ft | 332 kts | 262° |
| 2026-05-06 06:27 | 38.09423 | -98.36446 | 34081 ft | 336 kts | 267° |
| 2026-05-06 06:27 | 38.10246 | -98.42366 | 34079 ft | 348 kts | 278° |
| 2026-05-06 06:28 | 38.12234 | -98.48111 | 34069 ft | 360 kts | 285° |
| 2026-05-06 06:28 | 38.14577 | -98.53758 | 34076 ft | 362 kts | 286° |
| 2026-05-06 06:29 | 38.16965 | -98.59394 | 34083 ft | 362 kts | 286° |
| 2026-05-06 06:29 | 38.19327 | -98.65045 | 34085 ft | 362 kts | 285° |
| 2026-05-06 06:30 | 38.21651 | -98.70668 | 34093 ft | 361 kts | 285° |
| 2026-05-06 06:30 | 38.23980 | -98.76335 | 34096 ft | 362 kts | 285° |
| 2026-05-06 06:31 | 38.26308 | -98.82009 | 34100 ft | 362 kts | 285° |
| 2026-05-06 06:31 | 38.28636 | -98.87691 | 34102 ft | 362 kts | 285° |
| 2026-05-06 06:32 | 38.30963 | -98.93375 | 34101 ft | 362 kts | 285° |
| 2026-05-06 06:32 | 38.33285 | -98.99061 | 34099 ft | 361 kts | 285° |
| 2026-05-06 06:33 | 38.35601 | -99.04738 | 34097 ft | 361 kts | 285° |
| 2026-05-06 06:33 | 38.37912 | -99.10419 | 34094 ft | 361 kts | 285° |
| 2026-05-06 06:34 | 38.40226 | -99.16121 | 34091 ft | 362 kts | 285° |
| 2026-05-06 06:34 | 38.42542 | -99.21830 | 34093 ft | 363 kts | 285° |
| 2026-05-06 06:35 | 38.44857 | -99.27547 | 34094 ft | 363 kts | 285° |
| 2026-05-06 06:35 | 38.47169 | -99.33269 | 34094 ft | 363 kts | 285° |
| 2026-05-06 06:36 | 38.49477 | -99.38992 | 34100 ft | 363 kts | 285° |
| 2026-05-06 06:36 | 38.51783 | -99.44721 | 34123 ft | 363 kts | 285° |
| 2026-05-06 06:37 | 38.54092 | -99.50478 | 34097 ft | 366 kts | 285° |
| 2026-05-06 06:37 | 38.56418 | -99.56284 | 34102 ft | 367 kts | 285° |
| 2026-05-06 06:38 | 38.58747 | -99.62097 | 34104 ft | 367 kts | 285° |
| 2026-05-06 06:38 | 38.61073 | -99.67915 | 34100 ft | 368 kts | 285° |
| 2026-05-06 06:39 | 38.63395 | -99.73736 | 34104 ft | 368 kts | 285° |
| 2026-05-06 06:39 | 38.65716 | -99.79567 | 34105 ft | 368 kts | 285° |
| 2026-05-06 06:40 | 38.68017 | -99.85358 | 34103 ft | 368 kts | 285° |
| 2026-05-06 06:40 | 38.70340 | -99.91224 | 34156 ft | 370 kts | 285° |
| 2026-05-06 06:41 | 38.72670 | -99.97111 | 34109 ft | 371 kts | 285° |
| 2026-05-06 06:41 | 38.75003 | -100.03011 | 34101 ft | 371 kts | 285° |
| 2026-05-06 06:42 | 38.77330 | -100.08911 | 34107 ft | 371 kts | 285° |
| 2026-05-06 06:42 | 38.79653 | -100.14815 | 34105 ft | 371 kts | 285° |
| 2026-05-06 06:43 | 38.81975 | -100.20729 | 34108 ft | 371 kts | 285° |
| 2026-05-06 06:43 | 38.84296 | -100.26659 | 34103 ft | 373 kts | 285° |
| 2026-05-06 06:44 | 38.86627 | -100.32617 | 34109 ft | 374 kts | 285° |
| 2026-05-06 06:44 | 38.88561 | -100.37567 | 34108 ft | 374 kts | 285° |
| 2026-05-06 06:45 | 38.91266 | -100.44507 | 34105 ft | 375 kts | 285° |
| 2026-05-06 06:45 | 38.93597 | -100.50503 | 34105 ft | 375 kts | 285° |
| 2026-05-06 06:46 | 38.95547 | -100.55524 | 34108 ft | 375 kts | 285° |
| 2026-05-06 06:46 | 38.97877 | -100.61543 | 34104 ft | 378 kts | 285° |
| 2026-05-06 06:47 | 39.00599 | -100.68586 | 34110 ft | 379 kts | 285° |
| 2026-05-06 06:47 | 39.02548 | -100.73632 | 34109 ft | 379 kts | 285° |
| 2026-05-06 06:48 | 39.04889 | -100.79705 | 34109 ft | 379 kts | 285° |
| 2026-05-06 06:48 | 39.07225 | -100.85779 | 34157 ft | 379 kts | 285° |
| 2026-05-06 06:49 | 39.09565 | -100.91890 | 34115 ft | 382 kts | 285° |
| 2026-05-06 06:49 | 39.11917 | -100.98038 | 34098 ft | 383 kts | 285° |
| 2026-05-06 06:50 | 39.14270 | -101.04190 | 34103 ft | 383 kts | 285° |
| 2026-05-06 06:50 | 39.16622 | -101.10356 | 34112 ft | 383 kts | 285° |
| 2026-05-06 06:51 | 39.18968 | -101.16520 | 34108 ft | 383 kts | 285° |
| 2026-05-06 06:51 | 39.21311 | -101.22690 | 34097 ft | 383 kts | 285° |
| 2026-05-06 06:52 | 39.23650 | -101.28860 | 34110 ft | 383 kts | 285° |
| 2026-05-06 06:52 | 39.25992 | -101.35065 | 34110 ft | 388 kts | 287° |
| 2026-05-06 06:53 | 39.28380 | -101.41416 | 34098 ft | 397 kts | 287° |
| 2026-05-06 06:53 | 39.30785 | -101.47793 | 34094 ft | 398 kts | 287° |
| 2026-05-06 06:54 | 39.33205 | -101.54217 | 34092 ft | 398 kts | 287° |
| 2026-05-06 06:54 | 39.35620 | -101.60651 | 34089 ft | 398 kts | 287° |
| 2026-05-06 06:55 | 39.37969 | -101.67109 | 34102 ft | 393 kts | 283° |
| 2026-05-06 06:55 | 39.39339 | -101.73870 | 34101 ft | 390 kts | 274° |
| 2026-05-06 06:56 | 39.40213 | -101.80800 | 34098 ft | 391 kts | 272° |
| 2026-05-06 06:56 | 39.40989 | -101.87752 | 34099 ft | 391 kts | 272° |
| 2026-05-06 06:57 | 39.41762 | -101.94710 | 34115 ft | 391 kts | 273° |
| 2026-05-06 06:57 | 39.42548 | -102.01705 | 34105 ft | 395 kts | 273° |
| 2026-05-06 06:58 | 39.43342 | -102.08754 | 34103 ft | 399 kts | 274° |
| 2026-05-06 06:58 | 39.44144 | -102.15895 | 34100 ft | 402 kts | 274° |
| 2026-05-06 06:59 | 39.44948 | -102.23061 | 34097 ft | 403 kts | 274° |
| 2026-05-06 06:59 | 39.45745 | -102.30227 | 34097 ft | 402 kts | 274° |
| 2026-05-06 07:00 | 39.46538 | -102.37398 | 34100 ft | 402 kts | 274° |
| 2026-05-06 07:00 | 39.47326 | -102.44579 | 34101 ft | 404 kts | 274° |
| 2026-05-06 07:01 | 39.48114 | -102.51807 | 34103 ft | 406 kts | 274° |
| 2026-05-06 07:01 | 39.48903 | -102.59059 | 34099 ft | 407 kts | 274° |
| 2026-05-06 07:02 | 39.49687 | -102.66315 | 34100 ft | 407 kts | 274° |
| 2026-05-06 07:02 | 39.50465 | -102.73568 | 34100 ft | 407 kts | 274° |
| 2026-05-06 07:03 | 39.51239 | -102.80836 | 34099 ft | 409 kts | 274° |
| 2026-05-06 07:03 | 39.52015 | -102.88178 | 34098 ft | 412 kts | 274° |
| 2026-05-06 07:04 | 39.52790 | -102.95535 | 34120 ft | 413 kts | 274° |
| 2026-05-06 07:04 | 39.53563 | -103.02912 | 34092 ft | 414 kts | 274° |
| 2026-05-06 07:05 | 39.54333 | -103.10310 | 34082 ft | 414 kts | 274° |
| 2026-05-06 07:05 | 39.55098 | -103.17714 | 34089 ft | 416 kts | 274° |
| 2026-05-06 07:06 | 39.55861 | -103.25153 | 34085 ft | 417 kts | 274° |
| 2026-05-06 07:06 | 39.56621 | -103.32596 | 34086 ft | 417 kts | 274° |
| 2026-05-06 07:07 | 39.57372 | -103.39996 | 34078 ft | 417 kts | 274° |
| 2026-05-06 07:07 | 39.58122 | -103.47444 | 34081 ft | 417 kts | 274° |
| 2026-05-06 07:08 | 39.58868 | -103.54904 | 34083 ft | 418 kts | 274° |
| 2026-05-06 07:08 | 39.59610 | -103.62375 | 34081 ft | 418 kts | 274° |
| 2026-05-06 07:09 | 39.60349 | -103.69860 | 34083 ft | 418 kts | 274° |
| 2026-05-06 07:09 | 39.61083 | -103.77340 | 34083 ft | 418 kts | 274° |
| 2026-05-06 07:10 | 39.61811 | -103.84816 | 34080 ft | 418 kts | 274° |
| 2026-05-06 07:10 | 39.62535 | -103.92311 | 34081 ft | 419 kts | 274° |
| 2026-05-06 07:11 | 39.63257 | -103.99820 | 34089 ft | 419 kts | 274° |
| 2026-05-06 07:11 | 39.63973 | -104.07306 | 34086 ft | 418 kts | 274° |
| 2026-05-06 07:12 | 39.64677 | -104.14741 | 34090 ft | 418 kts | 274° |
| 2026-05-06 07:12 | 39.65385 | -104.22268 | 34086 ft | 418 kts | 274° |
| 2026-05-06 07:13 | 39.66080 | -104.29711 | 34099 ft | 418 kts | 274° |
| 2026-05-06 07:13 | 39.66780 | -104.37257 | 34099 ft | 418 kts | 274° |
| 2026-05-06 07:14 | 39.67466 | -104.44702 | 34101 ft | 418 kts | 274° |
| 2026-05-06 07:14 | 39.68151 | -104.52195 | 34108 ft | 418 kts | 274° |
| 2026-05-06 07:15 | 39.68831 | -104.59683 | 34108 ft | 418 kts | 274° |
| 2026-05-06 07:15 | 39.69641 | -104.67171 | 34073 ft | 419 kts | 276° |
| 2026-05-06 07:16 | 39.70614 | -104.74638 | 34083 ft | 419 kts | 276° |
| 2026-05-06 07:16 | 39.71599 | -104.82101 | 34081 ft | 419 kts | 276° |
| 2026-05-06 07:17 | 39.72560 | -104.89563 | 34082 ft | 419 kts | 276° |
| 2026-05-06 07:17 | 39.73505 | -104.97046 | 34079 ft | 421 kts | 276° |
| 2026-05-06 07:18 | 39.74447 | -105.04555 | 34098 ft | 421 kts | 276° |
| 2026-05-06 07:18 | 39.75386 | -105.12069 | 34103 ft | 421 kts | 276° |
| 2026-05-06 07:19 | 39.76319 | -105.19582 | 34101 ft | 421 kts | 276° |
| 2026-05-06 07:19 | 39.77248 | -105.27103 | 34101 ft | 421 kts | 276° |
| 2026-05-06 07:20 | 39.78171 | -105.34638 | 34098 ft | 422 kts | 276° |
| 2026-05-06 07:20 | 39.79094 | -105.42183 | 34084 ft | 423 kts | 276° |
| 2026-05-06 07:21 | 39.80012 | -105.49736 | 34073 ft | 423 kts | 276° |
| 2026-05-06 07:21 | 39.80918 | -105.57237 | 34032 ft | 423 kts | 276° |
| 2026-05-06 07:22 | 39.81827 | -105.64793 | 33972 ft | 423 kts | 277° |
| 2026-05-06 07:22 | 39.82731 | -105.72345 | 33975 ft | 422 kts | 277° |
| 2026-05-06 07:23 | 39.83625 | -105.79867 | 33939 ft | 419 kts | 277° |
| 2026-05-06 07:23 | 39.84506 | -105.87341 | 33941 ft | 417 kts | 277° |
| 2026-05-06 07:24 | 39.85382 | -105.94795 | 33889 ft | 417 kts | 277° |
| 2026-05-06 07:24 | 39.86253 | -106.02268 | 33886 ft | 417 kts | 278° |
| 2026-05-06 07:25 | 39.87118 | -106.09726 | 33869 ft | 417 kts | 278° |
| 2026-05-06 07:25 | 39.87980 | -106.17182 | 33872 ft | 416 kts | 278° |
| 2026-05-06 07:26 | 39.88831 | -106.24597 | 33870 ft | 417 kts | 278° |
| 2026-05-06 07:26 | 39.89682 | -106.32053 | 33863 ft | 417 kts | 278° |
| 2026-05-06 07:27 | 39.90534 | -106.39575 | 33861 ft | 418 kts | 278° |
| 2026-05-06 07:27 | 39.91379 | -106.47067 | 33869 ft | 418 kts | 278° |
| 2026-05-06 07:28 | 39.92212 | -106.54504 | 33861 ft | 418 kts | 278° |
| 2026-05-06 07:28 | 39.93458 | -106.65721 | 33862 ft | 413 kts | 278° |
| 2026-05-06 07:29 | 39.94274 | -106.73117 | 33857 ft | 413 kts | 278° |
| 2026-05-06 07:29 | 39.95089 | -106.80546 | 33869 ft | 414 kts | 278° |
| 2026-05-06 07:30 | 39.95900 | -106.87978 | 33886 ft | 414 kts | 278° |
| 2026-05-06 07:30 | 39.96707 | -106.95413 | 33889 ft | 414 kts | 278° |
| 2026-05-06 07:31 | 39.97508 | -107.02848 | 33876 ft | 414 kts | 278° |
| 2026-05-06 07:31 | 39.98305 | -107.10298 | 33883 ft | 416 kts | 279° |
| 2026-05-06 07:32 | 39.99103 | -107.17793 | 33884 ft | 417 kts | 278° |
| 2026-05-06 07:32 | 39.99896 | -107.25290 | 33882 ft | 418 kts | 278° |
| 2026-05-06 07:33 | 40.00685 | -107.32795 | 33884 ft | 417 kts | 278° |
| 2026-05-06 07:33 | 40.01468 | -107.40296 | 33863 ft | 418 kts | 279° |
| 2026-05-06 07:34 | 40.02247 | -107.47815 | 33890 ft | 417 kts | 279° |
| 2026-05-06 07:34 | 40.03014 | -107.55253 | 33883 ft | 416 kts | 279° |
| 2026-05-06 07:35 | 40.03780 | -107.62730 | 33884 ft | 416 kts | 279° |
| 2026-05-06 07:35 | 40.04542 | -107.70207 | 33886 ft | 416 kts | 279° |
| 2026-05-06 07:36 | 40.05297 | -107.77691 | 33890 ft | 417 kts | 279° |
| 2026-05-06 07:36 | 40.06050 | -107.85194 | 33990 ft | 417 kts | 279° |
| 2026-05-06 07:37 | 40.06672 | -107.91438 | 33989 ft | 417 kts | 279° |
| 2026-05-06 07:37 | 40.07276 | -107.98978 | 33987 ft | 418 kts | 277° |
| 2026-05-06 07:38 | 40.07772 | -108.06546 | 33973 ft | 418 kts | 277° |
| 2026-05-06 07:38 | 40.08259 | -108.14107 | 33922 ft | 418 kts | 277° |
| 2026-05-06 07:39 | 40.08756 | -108.21666 | 33930 ft | 418 kts | 277° |
| 2026-05-06 07:39 | 40.09256 | -108.29223 | 33931 ft | 418 kts | 277° |
| 2026-05-06 07:40 | 40.09754 | -108.36773 | 33931 ft | 417 kts | 277° |
| 2026-05-06 07:40 | 40.10242 | -108.44295 | 33910 ft | 417 kts | 278° |
| 2026-05-06 07:41 | 40.10730 | -108.51893 | 33959 ft | 420 kts | 278° |
| 2026-05-06 07:41 | 40.11215 | -108.59502 | 33955 ft | 421 kts | 278° |
| 2026-05-06 07:42 | 40.11694 | -108.67117 | 33954 ft | 421 kts | 277° |
| 2026-05-06 07:42 | 40.12168 | -108.74729 | 33947 ft | 421 kts | 277° |
| 2026-05-06 07:43 | 40.12636 | -108.82363 | 33944 ft | 423 kts | 278° |
| 2026-05-06 07:43 | 40.13107 | -108.90056 | 33950 ft | 425 kts | 278° |
| 2026-05-06 07:44 | 40.13572 | -108.97760 | 33953 ft | 426 kts | 278° |
| 2026-05-06 07:44 | 40.14033 | -109.05476 | 33932 ft | 426 kts | 278° |
| 2026-05-06 07:45 | 40.14503 | -109.13189 | 33879 ft | 426 kts | 279° |
| 2026-05-06 07:45 | 40.14963 | -109.20868 | 33908 ft | 427 kts | 278° |
| 2026-05-06 07:46 | 40.15412 | -109.28617 | 33919 ft | 427 kts | 279° |
| 2026-05-06 07:46 | 40.15851 | -109.36353 | 33929 ft | 427 kts | 279° |
| 2026-05-06 07:47 | 40.16286 | -109.44104 | 33920 ft | 427 kts | 279° |
| 2026-05-06 07:47 | 40.16716 | -109.51866 | 33923 ft | 429 kts | 279° |
| 2026-05-06 07:48 | 40.17142 | -109.59642 | 33930 ft | 429 kts | 279° |
| 2026-05-06 07:48 | 40.17565 | -109.67429 | 33907 ft | 429 kts | 279° |
| 2026-05-06 07:49 | 40.17980 | -109.75218 | 33877 ft | 429 kts | 279° |
| 2026-05-06 07:49 | 40.18391 | -109.83008 | 33870 ft | 431 kts | 280° |
| 2026-05-06 07:50 | 40.18801 | -109.90858 | 33876 ft | 434 kts | 279° |
| 2026-05-06 07:50 | 40.19205 | -109.98731 | 33870 ft | 434 kts | 279° |
| 2026-05-06 07:51 | 40.19604 | -110.06606 | 33867 ft | 434 kts | 279° |
| 2026-05-06 07:51 | 40.19802 | -110.10556 | 33672 ft | 434 kts | 279° |
| 2026-05-06 07:51 | 40.19998 | -110.14495 | 33119 ft | 434 kts | 280° |
| 2026-05-06 07:52 | 40.20194 | -110.18447 | 32565 ft | 437 kts | 280° |
| 2026-05-06 07:52 | 40.20391 | -110.22425 | 32022 ft | 440 kts | 281° |
| 2026-05-06 07:52 | 40.20589 | -110.26430 | 31492 ft | 441 kts | 281° |
| 2026-05-06 07:52 | 40.20784 | -110.30436 | 30971 ft | 442 kts | 281° |
| 2026-05-06 07:53 | 40.20974 | -110.34399 | 30466 ft | 443 kts | 281° |
| 2026-05-06 07:53 | 40.21166 | -110.38423 | 29964 ft | 443 kts | 281° |
| 2026-05-06 07:53 | 40.21355 | -110.42443 | 29376 ft | 442 kts | 281° |
| 2026-05-06 07:53 | 40.21542 | -110.46441 | 28791 ft | 438 kts | 281° |
| 2026-05-06 07:54 | 40.21725 | -110.50400 | 28174 ft | 435 kts | 281° |
| 2026-05-06 07:54 | 40.21907 | -110.54342 | 27614 ft | 433 kts | 280° |
| 2026-05-06 07:54 | 40.22087 | -110.58271 | 27068 ft | 430 kts | 280° |
| 2026-05-06 07:54 | 40.22264 | -110.62161 | 26537 ft | 426 kts | 280° |
| 2026-05-06 07:55 | 40.22437 | -110.66011 | 26012 ft | 421 kts | 280° |
| 2026-05-06 07:55 | 40.22607 | -110.69820 | 25493 ft | 417 kts | 280° |
| 2026-05-06 07:55 | 40.22774 | -110.73583 | 24985 ft | 412 kts | 280° |
| 2026-05-06 07:55 | 40.22939 | -110.77302 | 24494 ft | 408 kts | 280° |
| 2026-05-06 07:56 | 40.23102 | -110.80986 | 23969 ft | 404 kts | 280° |
| 2026-05-06 07:56 | 40.23261 | -110.84648 | 23485 ft | 401 kts | 280° |
| 2026-05-06 07:56 | 40.23419 | -110.88284 | 22928 ft | 399 kts | 280° |
| 2026-05-06 07:56 | 40.23577 | -110.91903 | 22361 ft | 397 kts | 280° |
| 2026-05-06 07:57 | 40.23732 | -110.95487 | 21809 ft | 393 kts | 279° |
| 2026-05-06 07:57 | 40.23881 | -110.99034 | 21272 ft | 389 kts | 279° |
| 2026-05-06 07:57 | 40.24038 | -111.02639 | 20747 ft | 410 kts | 279° |
| 2026-05-06 07:57 | 40.24212 | -111.06455 | 20250 ft | 426 kts | 279° |
| 2026-05-06 07:58 | 40.24376 | -111.10325 | 19731 ft | 426 kts | 278° |
| 2026-05-06 07:58 | 40.24527 | -111.14187 | 19198 ft | 424 kts | 278° |
| 2026-05-06 07:58 | 40.24675 | -111.18020 | 18708 ft | 421 kts | 278° |
| 2026-05-06 07:58 | 40.24824 | -111.21847 | 18221 ft | 419 kts | 277° |
| 2026-05-06 07:59 | 40.24974 | -111.25648 | 17669 ft | 416 kts | 277° |
| 2026-05-06 07:59 | 40.25126 | -111.29414 | 17116 ft | 414 kts | 277° |
| 2026-05-06 07:59 | 40.25274 | -111.33162 | 16573 ft | 410 kts | 277° |
| 2026-05-06 07:59 | 40.25422 | -111.36878 | 16048 ft | 408 kts | 277° |
| 2026-05-06 08:00 | 40.25564 | -111.40576 | 15515 ft | 405 kts | 276° |
| 2026-05-06 08:00 | 40.25702 | -111.44242 | 14994 ft | 402 kts | 276° |
| 2026-05-06 08:00 | 40.25841 | -111.47881 | 14491 ft | 399 kts | 276° |
| 2026-05-06 08:00 | 40.25981 | -111.51499 | 13980 ft | 397 kts | 275° |
| 2026-05-06 08:01 | 40.26117 | -111.55089 | 13449 ft | 395 kts | 275° |
| 2026-05-06 08:01 | 40.26249 | -111.58688 | 13096 ft | 394 kts | 275° |
| 2026-05-06 08:01 | 40.26379 | -111.62273 | 13080 ft | 393 kts | 275° |
| 2026-05-06 08:01 | 40.26506 | -111.65603 | 13079 ft | 392 kts | 275° |
| 2026-05-06 08:02 | 40.26640 | -111.69221 | 13079 ft | 392 kts | 275° |
| 2026-05-06 08:02 | 40.26770 | -111.72795 | 13078 ft | 392 kts | 275° |
| 2026-05-06 08:02 | 40.26891 | -111.76329 | 12891 ft | 383 kts | 275° |
| 2026-05-06 08:02 | 40.27004 | -111.79759 | 12449 ft | 368 kts | 275° |
| 2026-05-06 08:03 | 40.27113 | -111.83040 | 12000 ft | 356 kts | 275° |
| 2026-05-06 08:03 | 40.27351 | -111.86198 | 11560 ft | 342 kts | 284° |
| 2026-05-06 08:03 | 40.28099 | -111.89079 | 11131 ft | 329 kts | 299° |
| 2026-05-06 08:03 | 40.29404 | -111.91454 | 10697 ft | 317 kts | 316° |
| 2026-05-06 08:04 | 40.31148 | -111.93100 | 10471 ft | 303 kts | 334° |
| 2026-05-06 08:04 | 40.33111 | -111.93893 | 10301 ft | 291 kts | 351° |
| 2026-05-06 08:04 | 40.35094 | -111.94041 | 10151 ft | 289 kts | 358° |
| 2026-05-06 08:04 | 40.37133 | -111.94022 | 10000 ft | 290 kts | 359° |
| 2026-05-06 08:05 | 40.39150 | -111.93984 | 9739 ft | 291 kts | 359° |
| 2026-05-06 08:05 | 40.41175 | -111.93953 | 9432 ft | 290 kts | 359° |
| 2026-05-06 08:05 | 40.43194 | -111.93926 | 9125 ft | 290 kts | 359° |
| 2026-05-06 08:05 | 40.45182 | -111.93853 | 8869 ft | 288 kts | 360° |
| 2026-05-06 08:06 | 40.47208 | -111.93850 | 8850 ft | 288 kts | 356° |
| 2026-05-06 08:06 | 40.49179 | -111.94008 | 8868 ft | 286 kts | 353° |
| 2026-05-06 08:06 | 40.51179 | -111.94273 | 8876 ft | 285 kts | 352° |
| 2026-05-06 08:06 | 40.53124 | -111.94530 | 8873 ft | 285 kts | 353° |
| 2026-05-06 08:07 | 40.55093 | -111.94755 | 8753 ft | 283 kts | 353° |
| 2026-05-06 08:07 | 40.57022 | -111.94966 | 8402 ft | 275 kts | 353° |
| 2026-05-06 08:07 | 40.58916 | -111.95182 | 7982 ft | 271 kts | 353° |
| 2026-05-06 08:07 | 40.60789 | -111.95399 | 7547 ft | 268 kts | 354° |
| 2026-05-06 08:08 | 40.62631 | -111.95612 | 7182 ft | 264 kts | 354° |
| 2026-05-06 08:08 | 40.64448 | -111.95820 | 6838 ft | 257 kts | 354° |
| 2026-05-06 08:08 | 40.66171 | -111.96016 | 6533 ft | 239 kts | 354° |
| 2026-05-06 08:08 | 40.67772 | -111.96199 | 6221 ft | 222 kts | 354° |
| 2026-05-06 08:09 | 40.69246 | -111.96369 | 5931 ft | 205 kts | 355° |
| 2026-05-06 08:09 | 40.70586 | -111.96523 | 5689 ft | 184 kts | 354° |
| 2026-05-06 08:09 | 40.71802 | -111.96663 | 5411 ft | 168 kts | 355° |
| 2026-05-06 08:09 | 40.72947 | -111.96795 | 5176 ft | 164 kts | 355° |
| 2026-05-06 08:10 | 40.74085 | -111.96930 | 4918 ft | 166 kts | 355° |
| 2026-05-06 08:10 | 40.75245 | -111.97064 | 4706 ft | 169 kts | 356° |
| 2026-05-06 08:10 | 40.76413 | -111.97202 | 4495 ft | 167 kts | 355° |
| 2026-05-06 08:10 | 40.77562 | -111.97333 | 4290 ft | 165 kts | 356° |
| 2026-05-06 08:11 | 40.78600 | -111.97447 | 4232 ft | 114 kts | 355° |
| 2026-05-06 08:11 | 40.79182 | -111.97517 | 4235 ft | 56 kts | 353° |
| 2026-05-06 08:11 | 40.79476 | -111.97604 | 4230 ft | 32 kts | 327° |
| 2026-05-06 08:11 | 40.79550 | -111.97730 | 4228 ft | 13 kts | 252° |
| 2026-05-06 08:12 | 40.79506 | -111.97767 | 4229 ft | 6 kts | 179° |
| 2026-05-06 08:12 | 40.79468 | -111.97764 | 4229 ft | 5 kts | 175° |
| 2026-05-06 08:12 | 40.79419 | -111.97759 | 4231 ft | 9 kts | 175° |
| 2026-05-06 08:12 | 40.79337 | -111.97749 | 4232 ft | 15 kts | 175° |
| 2026-05-06 08:13 | 40.79214 | -111.97734 | 4232 ft | 21 kts | 174° |
| 2026-05-06 08:13 | 40.79051 | -111.97714 | 4237 ft | 26 kts | 174° |
| 2026-05-06 08:13 | 40.78871 | -111.97694 | 4236 ft | 25 kts | 175° |
| 2026-05-06 08:13 | 40.78768 | -111.97702 | 4236 ft | 6 kts | 234° |
| 2026-05-06 08:14 | 40.78754 | -111.97776 | 4236 ft | 14 kts | 263° |
| 2026-05-06 08:14 | 40.78741 | -111.97953 | 4237 ft | 22 kts | 264° |
| 2026-05-06 08:14 | 40.78726 | -111.98003 | 4236 ft | 5 kts | 190° |
| 2026-05-06 08:14 | 40.78672 | -111.98000 | 4234 ft | 4 kts | 174° |
| 2026-05-06 08:15 | 40.78666 | -111.98000 | 4235 ft | 0 kts | 175° |